Time;durP1;ratioP1;P1;durP2;ratioP2;P2;SDS_P1;SDS_P2;PMS_P1;PMS_P2;Temp;Humidity;BMP_temperature;BMP_pressure;BME280_temperature;BME280_humidity;BME280_pressure;Samples;Min_cycle;Max_cycle;Signal;HPM_P1;HPM_P2
2022/03/03 00:02:26;;;;;;;5.47;5.18;;;;;;;0.70;57.28;101582.03;6085043;23;20370;-74
2022/03/03 00:04:52;;;;;;;2.78;2.67;;;;;;;0.63;58.62;101569.97;6057053;23;20022;-74
2022/03/03 00:07:19;;;;;;;3.25;3.10;;;;;;;-0.41;58.00;101416.47;6079991;23;20018;-74
2022/03/03 00:09:45;;;;;;;2.80;2.70;;;;;;;0.71;58.17;101586.38;6084808;23;20028;-73
2022/03/03 00:12:12;;;;;;;2.85;2.75;;;;;;;0.71;57.51;101592.38;6088787;23;20065;-73
2022/03/03 00:14:38;;;;;;;3.10;3.00;;;;;;;0.68;57.86;101588.91;6079102;23;20014;-74
2022/03/03 00:17:05;;;;;;;2.70;2.60;;;;;;;0.25;57.65;101516.50;6090737;23;20057;-75
2022/03/03 00:19:31;;;;;;;4.40;4.20;;;;;;;0.67;57.99;101589.78;6087941;23;20026;-74
2022/03/03 00:21:58;;;;;;;3.63;3.38;;;;;;;0.56;57.34;101572.56;6085810;23;20037;-73
2022/03/03 00:24:25;;;;;;;4.40;4.20;;;;;;;0.28;57.84;101556.09;6094574;23;20031;-74
2022/03/03 00:26:51;;;;;;;3.17;3.03;;;;;;;0.59;57.63;101580.28;6091806;23;20637;-73
2022/03/03 00:29:20;;;;;;;2.97;2.88;;;;;;;0.56;57.51;101585.47;6106630;23;20092;-75
2022/03/03 00:31:47;;;;;;;2.80;2.70;;;;;;;0.27;57.63;101551.78;6087055;23;20046;-73
2022/03/03 00:34:14;;;;;;;3.55;3.35;;;;;;;0.43;58.14;101583.69;6087848;23;20018;-73
2022/03/03 00:36:41;;;;;;;3.45;3.25;;;;;;;0.39;58.92;101579.38;6079564;23;20506;-76
2022/03/03 00:39:08;;;;;;;2.80;2.70;;;;;;;0.30;58.34;101568.97;6094102;23;20039;-73
2022/03/03 00:41:35;;;;;;;4.35;4.15;;;;;;;-0.85;59.03;101394.72;6094174;23;20053;-73
2022/03/03 00:44:02;;;;;;;3.30;3.08;;;;;;;0.17;59.10;101553.44;6100339;23;20084;-75
2022/03/03 00:46:28;;;;;;;4.50;4.30;;;;;;;0.09;59.08;101546.53;6099295;23;20022;-74
2022/03/03 00:48:55;;;;;;;3.42;3.33;;;;;;;-0.29;59.08;101509.34;6095664;23;20043;-74
2022/03/03 00:51:22;;;;;;;3.50;3.38;;;;;;;0.04;60.25;101569.75;6084037;23;20009;-74
2022/03/03 00:53:50;;;;;;;2.92;2.83;;;;;;;-0.06;61.00;101566.25;6091916;23;20200;-72
2022/03/03 00:56:17;;;;;;;3.28;3.17;;;;;;;-0.15;62.82;101571.34;6106959;23;20014;-74
2022/03/03 00:58:45;;;;;;;3.00;2.90;;;;;;;-0.93;62.75;101455.66;6076408;23;20044;-72
2022/03/03 01:01:11;;;;;;;2.80;2.70;;;;;;;-0.33;64.38;101577.25;6078966;23;20013;-72
2022/03/03 01:03:38;;;;;;;3.13;3.03;;;;;;;-0.66;68.79;101541.75;6087912;23;20030;-73
2022/03/03 01:08:53;;;;;;;3.00;2.90;;;;;;;-0.64;68.53;101534.94;5979505;23;20031;-72
2022/03/03 01:11:20;;;;;;;3.50;3.30;;;;;;;-0.48;67.09;101567.69;6025939;23;20035;-73
2022/03/03 01:13:46;;;;;;;2.60;2.50;;;;;;;-0.96;67.47;101489.16;6004239;23;20051;-72
2022/03/03 01:16:12;;;;;;;2.50;2.40;;;;;;;-2.08;67.34;101316.56;5998381;23;20032;-70
2022/03/03 01:18:39;;;;;;;2.90;2.80;;;;;;;-0.58;67.54;101565.03;6009180;23;20436;-73
2022/03/03 01:21:05;;;;;;;3.05;2.95;;;;;;;-1.28;66.03;101458.84;6002820;23;20085;-74
2022/03/03 01:23:32;;;;;;;3.72;3.63;;;;;;;-0.55;66.42;101558.19;5997562;23;20020;-73
2022/03/03 01:25:58;;;;;;;3.17;2.97;;;;;;;-0.53;65.44;101559.06;5980421;23;20548;-72
2022/03/03 01:28:25;;;;;;;3.55;3.45;;;;;;;-0.53;66.08;101559.06;6006593;23;20079;-73
2022/03/03 01:30:51;;;;;;;2.80;2.70;;;;;;;-0.65;65.41;101540.91;5972270;23;20093;-74
2022/03/03 01:33:18;;;;;;;2.47;2.38;;;;;;;-0.48;65.90;101549.66;6000879;23;20335;-72
2022/03/03 01:35:44;;;;;;;2.60;2.50;;;;;;;-0.44;64.42;101550.50;6000830;23;20026;-74
2022/03/03 01:38:11;;;;;;;4.15;2.90;;;;;;;-0.39;63.82;101551.41;6007270;23;20453;-73
2022/03/03 01:40:38;;;;;;;3.47;3.38;;;;;;;-0.42;63.81;101551.41;5999299;23;20087;-75
2022/03/03 01:43:05;;;;;;;2.60;2.50;;;;;;;-0.57;63.32;101521.22;6016522;23;20025;-75
2022/03/03 01:45:32;;;;;;;4.30;4.10;;;;;;;-0.49;63.94;101547.06;5996146;23;20657;-71
2022/03/03 01:47:59;;;;;;;2.60;2.50;;;;;;;-0.50;63.32;101548.78;6000087;23;20015;-71
2022/03/03 01:50:26;;;;;;;4.45;4.25;;;;;;;-0.53;63.91;101542.72;5990444;23;20027;-71
2022/03/03 01:52:52;;;;;;;2.67;2.58;;;;;;;-0.57;63.41;101547.00;5990754;23;20563;-72
2022/03/03 01:55:19;;;;;;;4.13;3.85;;;;;;;-0.62;64.09;101539.25;6001156;23;20091;-72
2022/03/03 01:57:49;;;;;;;2.70;2.60;;;;;;;-1.08;64.13;101463.31;6002703;23;20079;-71
2022/03/03 02:00:17;;;;;;;2.60;2.50;;;;;;;-0.69;63.17;101536.59;6002567;23;20089;-73
2022/03/03 02:02:46;;;;;;;2.65;2.55;;;;;;;-1.14;63.57;101473.53;6005534;23;20493;-71
2022/03/03 02:05:13;;;;;;;2.85;2.75;;;;;;;-1.13;63.61;101478.69;6006491;23;20040;-72
2022/03/03 02:07:39;;;;;;;2.70;2.60;;;;;;;-1.34;64.66;101461.34;5998808;23;20038;-71
2022/03/03 02:10:07;;;;;;;3.70;3.50;;;;;;;-0.82;64.66;101533.94;6008470;23;20019;-72
2022/03/03 02:12:34;;;;;;;4.43;4.22;;;;;;;-0.86;65.30;101526.16;6006884;23;20019;-72
2022/03/03 02:15:00;;;;;;;2.40;2.30;;;;;;;-1.06;64.74;101502.81;6009160;23;20098;-71
2022/03/03 02:17:27;;;;;;;4.53;4.32;;;;;;;-1.98;65.32;101381.81;6001510;23;20023;-71
2022/03/03 02:19:54;;;;;;;2.60;2.50;;;;;;;-1.68;65.79;101421.56;6000524;23;20048;-72
2022/03/03 02:22:20;;;;;;;3.58;3.42;;;;;;;-1.02;65.28;101528.59;5998861;23;20062;-71
2022/03/03 02:24:47;;;;;;;2.33;2.22;;;;;;;-1.70;66.00;101420.69;5971597;23;20143;-69
2022/03/03 02:27:13;;;;;;;3.00;2.90;;;;;;;-1.18;65.72;101507.81;6005741;23;20014;-70
2022/03/03 02:29:40;;;;;;;2.80;2.70;;;;;;;-1.11;66.61;101525.94;6003240;23;20094;-71
2022/03/03 02:32:07;;;;;;;2.45;2.35;;;;;;;-1.10;67.11;101519.06;6002354;23;20090;-71
2022/03/03 02:34:34;;;;;;;3.53;3.42;;;;;;;-1.57;66.23;101431.94;6006289;23;20575;-71
2022/03/03 02:37:01;;;;;;;2.60;2.50;;;;;;;-1.09;67.17;101513.06;6001264;23;20062;-71
2022/03/03 02:39:28;;;;;;;3.38;3.28;;;;;;;-1.11;66.75;101514.78;6010443;23;20023;-71
2022/03/03 02:41:54;;;;;;;4.30;4.00;;;;;;;-1.19;67.34;101496.66;6007625;23;20015;-71
2022/03/03 02:44:20;;;;;;;2.85;2.75;;;;;;;-1.13;66.06;101511.31;6000964;23;20082;-73
2022/03/03 02:46:47;;;;;;;2.50;2.40;;;;;;;-1.12;66.92;101510.47;6000631;23;20090;-73
2022/03/03 02:49:13;;;;;;;2.40;2.30;;;;;;;-1.81;66.89;101397.41;6003340;23;20035;-72
2022/03/03 02:51:40;;;;;;;3.83;3.60;;;;;;;-1.18;66.39;101508.72;5989043;23;20043;-70
2022/03/03 02:54:06;;;;;;;3.03;2.92;;;;;;;-2.72;66.80;101249.06;5997348;23;20365;-71
2022/03/03 02:57:53;;;;;;;4.65;4.45;;;;;;;-1.23;67.92;101493.19;5994825;23;20388;-72
2022/03/03 02:59:20;;;;;;;3.90;3.67;;;;;;;-1.25;67.20;101497.47;6001536;23;20551;-71
2022/03/03 03:01:46;;;;;;;2.78;2.67;;;;;;;-1.27;68.04;101490.59;6004174;23;20011;-70
2022/03/03 03:04:13;;;;;;;4.78;4.57;;;;;;;-3.22;67.28;101165.47;5978524;23;20044;-71
2022/03/03 03:06:39;;;;;;;2.75;2.65;;;;;;;-2.56;67.08;101268.94;5992477;23;20087;-71
2022/03/03 03:09:06;;;;;;;3.10;3.00;;;;;;;-1.33;67.80;101487.97;6013259;23;20031;-70
2022/03/03 03:11:32;;;;;;;4.68;4.47;;;;;;;-2.35;68.17;101347.97;6004655;23;20027;-72
2022/03/03 03:13:59;;;;;;;2.40;2.30;;;;;;;-2.96;70.13;101247.09;6004660;23;20090;-72
2022/03/03 03:16:25;;;;;;;2.63;2.53;;;;;;;-2.61;70.25;101329.69;5999421;23;20015;-72
2022/03/03 03:18:52;;;;;;;2.83;2.72;;;;;;;-2.59;70.81;101348.53;6031938;23;20025;-71
2022/03/03 03:21:18;;;;;;;2.25;2.15;;;;;;;-2.65;71.79;101344.19;6003888;23;20433;-73
2022/03/03 03:23:44;;;;;;;2.50;2.40;;;;;;;-2.48;72.42;101376.97;5996395;23;20023;-70
2022/03/03 03:26:11;;;;;;;2.58;2.47;;;;;;;-1.79;71.87;101487.47;6003348;23;20031;-71
2022/03/03 03:28:37;;;;;;;2.80;2.70;;;;;;;-1.81;71.25;101479.75;5999924;23;20233;-73
2022/03/03 03:31:04;;;;;;;2.53;2.42;;;;;;;-2.38;72.57;101396.78;6008203;23;20347;-71
2022/03/03 03:33:31;;;;;;;4.60;4.40;;;;;;;-2.59;72.48;101369.09;6037321;18;20035;-72
2022/03/03 03:35:57;;;;;;;2.38;2.28;;;;;;;-1.86;71.30;101477.13;6008175;23;20043;-72
2022/03/03 03:38:23;;;;;;;4.15;3.95;;;;;;;-1.83;71.97;101471.13;6022949;23;20011;-72
2022/03/03 03:40:50;;;;;;;2.50;2.40;;;;;;;-2.91;70.95;101283.94;5991232;23;20037;-73
2022/03/03 03:43:16;;;;;;;2.45;2.35;;;;;;;-1.78;71.04;101474.63;6025309;23;20030;-74
2022/03/03 03:45:43;;;;;;;2.60;2.50;;;;;;;-2.22;72.19;101390.13;6000786;23;20019;-72
2022/03/03 03:48:09;;;;;;;2.50;2.40;;;;;;;-2.43;71.17;101349.59;6023675;23;20042;-72
2022/03/03 03:50:36;;;;;;;3.72;3.60;;;;;;;-1.91;72.28;101432.47;6024855;23;20835;-72
2022/03/03 03:53:03;;;;;;;2.50;2.40;;;;;;;-1.71;71.40;101460.13;6000245;23;20023;-72
2022/03/03 03:55:29;;;;;;;3.58;3.40;;;;;;;-2.00;72.24;101409.22;6019020;23;20541;-74
2022/03/03 03:57:56;;;;;;;2.65;2.55;;;;;;;-2.13;72.12;101397.94;6021028;23;20168;-73
2022/03/03 04:00:22;;;;;;;2.85;2.75;;;;;;;-1.65;70.66;101467.91;6001734;23;20022;-73
2022/03/03 04:02:49;;;;;;;2.60;2.50;;;;;;;-2.07;70.78;101405.72;5988040;23;20023;-72
2022/03/03 04:05:15;;;;;;;6.45;6.15;;;;;;;-1.76;70.71;101462.66;6017335;23;20245;-72
2022/03/03 04:07:42;;;;;;;2.25;2.15;;;;;;;-2.17;71.02;101403.88;6013613;23;20195;-74
2022/03/03 04:10:10;;;;;;;2.33;2.22;;;;;;;-1.89;70.90;101455.63;6021209;23;20114;-72
2022/03/03 04:12:36;;;;;;;4.35;4.15;;;;;;;-1.97;71.65;101452.13;5998054;23;20019;-72
2022/03/03 04:15:04;;;;;;;3.08;2.88;;;;;;;-2.99;71.40;101293.25;6017474;23;20041;-72
2022/03/03 04:17:31;;;;;;;4.35;4.15;;;;;;;-2.03;71.91;101468.34;5991445;23;20019;-73
2022/03/03 04:20:04;;;;;;;3.10;3.00;;;;;;;-2.07;71.45;101454.56;6021880;23;20104;-73
2022/03/03 04:22:31;;;;;;;4.38;4.18;;;;;;;-2.11;71.98;101465.66;5995788;23;20019;-73
2022/03/03 04:24:57;;;;;;;2.50;2.40;;;;;;;-2.13;72.07;101459.66;6019127;23;20187;-73
2022/03/03 04:27:24;;;;;;;4.30;4.10;;;;;;;-2.15;72.72;101469.03;6021143;23;20480;-73
2022/03/03 04:29:51;;;;;;;3.63;3.42;;;;;;;-2.22;73.74;101456.97;6022464;23;20019;-72
2022/03/03 04:32:18;;;;;;;2.92;2.83;;;;;;;-3.41;73.35;101270.47;6022804;23;20011;-75
2022/03/03 04:34:44;;;;;;;2.30;2.20;;;;;;;-2.91;74.50;101353.28;6019685;23;20034;-72
2022/03/03 04:37:10;;;;;;;2.65;2.55;;;;;;;-2.90;74.94;101362.72;6023878;23;20325;-74
2022/03/03 04:39:37;;;;;;;4.07;3.88;;;;;;;-2.55;75.06;101429.13;6017584;23;20011;-71
2022/03/03 04:42:04;;;;;;;3.50;3.30;;;;;;;-3.96;75.42;101197.81;5996894;23;20039;-72
2022/03/03 04:44:30;;;;;;;4.45;4.25;;;;;;;-3.07;74.32;101349.63;6025800;23;20011;-72
2022/03/03 04:46:57;;;;;;;3.00;2.90;;;;;;;-2.76;74.41;101398.88;5991373;23;20050;-75
2022/03/03 04:49:23;;;;;;;4.20;4.00;;;;;;;-2.74;75.99;101410.88;6023434;23;20132;-70
2022/03/03 04:51:50;;;;;;;2.28;2.17;;;;;;;-3.05;75.13;101365.91;5999494;23;20034;-74
2022/03/03 04:54:27;;;;;;;2.30;2.20;;;;;;;-2.61;75.02;101427.31;6009942;23;20023;-75
2022/03/03 04:56:55;;;;;;;2.28;2.17;;;;;;;-2.59;76.35;101425.63;5996761;23;20049;-74
2022/03/03 04:59:25;;;;;;;3.35;3.25;;;;;;;-3.05;75.60;101345.38;6012755;23;20011;-72
2022/03/03 05:01:51;;;;;;;2.60;2.40;;;;;;;-2.61;76.77;101417.03;5984250;23;20031;-72
2022/03/03 05:04:19;;;;;;;2.22;2.13;;;;;;;-2.72;76.27;101387.78;6015695;23;20018;-73
2022/03/03 05:06:46;;;;;;;2.45;2.30;;;;;;;-2.63;76.77;101405.88;5993709;23;20037;-72
2022/03/03 05:09:13;;;;;;;4.03;3.75;;;;;;;-2.64;77.31;101402.47;6025910;23;20046;-72
2022/03/03 05:11:41;;;;;;;2.10;2.00;;;;;;;-2.65;76.77;101410.13;6014874;23;20031;-72
2022/03/03 05:14:07;;;;;;;2.40;2.20;;;;;;;-2.65;76.18;101399.84;5996713;23;20023;-73
2022/03/03 05:16:34;;;;;;;4.60;4.40;;;;;;;-2.73;77.27;101388.63;6023347;23;20027;-73
2022/03/03 05:19:00;;;;;;;2.50;2.40;;;;;;;-2.59;78.14;101402.50;5996517;23;20029;-72
2022/03/03 05:21:27;;;;;;;3.58;3.47;;;;;;;-3.34;77.34;101273.97;6024140;23;20061;-73
2022/03/03 05:23:53;;;;;;;2.22;2.13;;;;;;;-2.36;77.75;101402.81;6002893;23;20367;-75
2022/03/03 05:26:20;;;;;;;2.40;2.30;;;;;;;-2.56;77.58;101348.59;6003095;23;20427;-73
2022/03/03 05:28:46;;;;;;;2.20;2.10;;;;;;;-2.22;76.19;101396.13;6014009;23;20204;-73
2022/03/03 05:31:12;;;;;;;2.20;2.10;;;;;;;-2.21;76.86;101395.25;6024556;23;20440;-72
2022/03/03 05:33:40;;;;;;;2.97;2.78;;;;;;;-2.36;75.79;101369.41;5987843;23;20241;-72
2022/03/03 05:36:09;;;;;;;2.83;2.70;;;;;;;-2.53;76.26;101328.06;6032924;23;20450;-73
2022/03/03 05:38:35;;;;;;;3.78;3.65;;;;;;;-2.12;75.80;101403.97;6014297;23;20046;-73
2022/03/03 05:41:03;;;;;;;2.42;2.33;;;;;;;-2.35;77.03;101398.53;6004833;23;20556;-72
2022/03/03 05:43:31;;;;;;;7.30;5.43;;;;;;;-2.48;76.31;101384.69;6013312;23;20106;-72
2022/03/03 05:45:58;;;;;;;2.60;2.47;;;;;;;-2.93;75.57;101325.00;6038529;23;20070;-73
2022/03/03 05:48:28;;;;;;;3.45;3.35;;;;;;;-2.63;75.94;101391.34;6032414;23;20030;-72
2022/03/03 05:50:55;;;;;;;2.30;2.20;;;;;;;-3.06;75.80;101331.69;6016423;23;20240;-72
2022/03/03 05:53:22;;;;;;;3.85;3.67;;;;;;;-2.99;75.96;101347.16;6030026;23;20034;-73
2022/03/03 05:55:53;;;;;;;2.90;2.80;;;;;;;-2.68;76.48;101410.13;5989700;23;20046;-72
2022/03/03 05:58:27;;;;;;;3.83;3.65;;;;;;;-2.78;76.24;101419.38;6023476;23;20108;-72
2022/03/03 06:00:57;;;;;;;2.20;2.10;;;;;;;-2.76;76.31;101416.84;6017426;23;20245;-72
2022/03/03 06:03:28;;;;;;;3.80;3.65;;;;;;;-3.24;76.26;101344.25;6023962;23;20077;-73
2022/03/03 06:06:01;;;;;;;2.15;2.05;;;;;;;-2.80;77.04;101418.50;6023706;23;20057;-73
2022/03/03 06:08:36;;;;;;;4.10;3.90;;;;;;;-2.84;77.03;101416.75;6025802;23;20022;-73
2022/03/03 06:11:05;;;;;;;2.88;2.78;;;;;;;-3.02;76.53;101405.34;5999529;23;20612;-73
2022/03/03 06:13:38;;;;;;;4.15;3.95;;;;;;;-3.01;78.11;101403.63;6026557;23;20021;-73
2022/03/03 06:16:05;;;;;;;3.13;2.92;;;;;;;-3.11;77.56;101405.19;6003497;23;20046;-73
2022/03/03 06:18:32;;;;;;;4.72;4.43;;;;;;;-3.23;78.01;101384.47;6026661;23;20043;-75
2022/03/03 06:20:59;;;;;;;2.38;2.28;;;;;;;-4.78;77.77;101123.03;6032111;23;20045;-75
2022/03/03 06:23:26;;;;;;;3.47;3.38;;;;;;;-3.12;79.25;101400.91;5989435;23;20043;-75
2022/03/03 06:26:03;;;;;;;2.25;2.15;;;;;;;-3.42;79.32;101352.53;6019765;23;20025;-73
2022/03/03 06:28:30;;;;;;;3.10;3.00;;;;;;;-3.17;79.11;101399.13;5978701;23;20496;-74
2022/03/03 06:30:57;;;;;;;2.05;1.95;;;;;;;-3.39;79.97;101367.97;6023089;23;20081;-75
2022/03/03 06:33:25;;;;;;;4.03;3.83;;;;;;;-3.63;80.25;101333.41;5999760;23;20024;-71
2022/03/03 06:35:52;;;;;;;2.00;1.90;;;;;;;-3.51;80.27;101347.25;6027988;23;20026;-74
2022/03/03 06:38:18;;;;;;;1.85;1.83;;;;;;;-3.49;79.24;101343.00;5997495;23;20023;-76
2022/03/03 06:40:45;;;;;;;2.50;2.40;;;;;;;-4.22;79.29;101226.44;6021735;23;20091;-75
2022/03/03 06:43:11;;;;;;;2.63;2.45;;;;;;;-4.08;79.90;101247.19;5995627;23;20015;-73
2022/03/03 06:45:38;;;;;;;3.70;3.50;;;;;;;-3.35;79.68;101358.63;6015510;23;20094;-75
2022/03/03 06:48:05;;;;;;;2.53;2.42;;;;;;;-2.85;80.38;101428.69;5997559;23;20047;-74
2022/03/03 06:50:36;;;;;;;5.03;4.82;;;;;;;-2.94;79.63;101420.00;6025655;23;20014;-74
2022/03/03 06:53:04;;;;;;;2.20;2.10;;;;;;;-2.92;80.22;101411.50;6002986;23;20030;-74
2022/03/03 06:55:31;;;;;;;3.10;3.00;;;;;;;-2.71;79.87;101430.59;6014507;23;20078;-75
2022/03/03 06:57:59;;;;;;;2.67;2.58;;;;;;;-2.67;80.69;101437.50;6016284;23;20046;-74
2022/03/03 07:00:33;;;;;;;4.32;4.13;;;;;;;-2.66;79.72;101436.69;6026833;23;20038;-74
2022/03/03 07:03:01;;;;;;;2.20;2.10;;;;;;;-2.77;79.29;101420.25;5993275;23;20052;-74
2022/03/03 07:05:30;;;;;;;3.80;3.65;;;;;;;-2.71;80.30;101428.91;6024328;23;20093;-75
2022/03/03 07:07:57;;;;;;;2.38;2.28;;;;;;;-3.12;79.65;101359.84;6026708;23;20030;-75
2022/03/03 07:10:25;;;;;;;3.90;3.75;;;;;;;-2.92;79.82;101378.09;6018881;23;20022;-74
2022/03/03 07:12:53;;;;;;;3.15;3.00;;;;;;;-2.60;80.31;101418.78;6001721;23;20019;-73
2022/03/03 07:15:24;;;;;;;2.35;2.25;;;;;;;-2.31;80.17;101442.28;6020308;23;20011;-77
2022/03/03 07:17:56;;;;;;;2.20;2.10;;;;;;;-2.14;79.65;101434.78;5996307;23;20223;-74
2022/03/03 07:21:10;;;;;;;3.65;3.55;;;;;;;-3.15;78.36;101230.56;5999615;23;20070;-75
2022/03/03 07:23:39;;;;;;;3.70;3.58;;;;;;;-1.74;78.59;101448.09;6025889;23;20014;-75
2022/03/03 07:26:08;;;;;;;2.50;2.40;;;;;;;-1.61;77.34;101437.06;5994922;23;20095;-74
2022/03/03 07:28:38;;;;;;;3.78;3.65;;;;;;;-1.97;77.21;101359.53;6021507;23;20358;-77
2022/03/03 07:31:06;;;;;;;2.45;2.35;;;;;;;-1.81;77.46;101358.81;6018533;23;20178;-75
2022/03/03 07:33:48;;;;;;;3.85;3.72;;;;;;;-1.42;76.73;101383.19;5989561;23;20033;-75
2022/03/03 07:36:19;;;;;;;2.85;2.75;;;;;;;-1.39;74.28;101344.59;6045517;23;20010;-75
2022/03/03 07:38:57;;;;;;;2.40;2.30;;;;;;;-0.88;72.85;101399.00;6023379;23;20090;-74
2022/03/03 07:41:25;;;;;;;4.18;3.97;;;;;;;-0.66;72.46;101420.59;5991195;23;20007;-75
2022/03/03 07:43:53;;;;;;;2.60;2.50;;;;;;;-0.31;71.22;101433.69;6019278;23;20046;-74
2022/03/03 07:46:21;;;;;;;2.95;2.85;;;;;;;-0.19;69.44;101435.47;5992689;23;20017;-76
2022/03/03 07:48:50;;;;;;;3.17;3.08;;;;;;;-0.04;68.24;101432.06;6027797;23;20181;-76
2022/03/03 07:51:18;;;;;;;2.63;2.53;;;;;;;-0.46;68.39;101340.78;6008727;23;20026;-77
2022/03/03 07:53:45;;;;;;;3.67;3.47;;;;;;;-0.04;67.31;101401.09;6025066;23;20217;-76
2022/03/03 07:56:20;;;;;;;3.78;3.35;;;;;;;0.36;67.38;101445.06;5996515;23;20017;-74
2022/03/03 07:58:49;;;;;;;2.60;2.50;;;;;;;-0.05;67.28;101366.72;6015356;23;20023;-75
2022/03/03 08:01:18;;;;;;;2.70;2.60;;;;;;;0.28;65.80;101406.38;5994387;23;20012;-75
2022/03/03 08:03:46;;;;;;;2.90;2.80;;;;;;;0.75;65.93;101446.84;6013933;23;20114;-74
2022/03/03 08:06:15;;;;;;;2.97;2.88;;;;;;;0.73;64.85;101416.72;6016437;23;20089;-76
2022/03/03 08:08:41;;;;;;;2.72;2.63;;;;;;;1.04;64.89;101448.56;6027657;23;20121;-75
2022/03/03 08:11:09;;;;;;;2.67;2.58;;;;;;;0.67;64.21;101365.91;5983667;23;20023;-76
2022/03/03 08:13:36;;;;;;;3.55;3.45;;;;;;;1.28;64.49;101449.41;6020238;23;20010;-75
2022/03/03 08:16:03;;;;;;;4.85;3.55;;;;;;;1.35;63.56;101431.28;5999248;23;20031;-75
2022/03/03 08:18:35;;;;;;;4.03;3.85;;;;;;;0.51;62.91;101266.06;6017699;23;20076;-74
2022/03/03 08:21:04;;;;;;;2.70;2.60;;;;;;;1.73;63.13;101445.84;5996132;23;20017;-75
2022/03/03 08:23:32;;;;;;;4.05;3.85;;;;;;;1.15;63.33;101330.50;6021132;23;20018;-76
2022/03/03 08:26:00;;;;;;;2.50;2.40;;;;;;;1.93;63.85;101444.91;5998807;23;21236;-76
2022/03/03 08:28:27;;;;;;;5.13;4.90;;;;;;;1.62;62.69;101375.16;6024778;23;20102;-75
2022/03/03 08:31:06;;;;;;;2.63;2.53;;;;;;;2.20;62.38;101443.88;5998192;23;20097;-75
2022/03/03 08:33:59;;;;;;;4.25;4.05;;;;;;;2.38;62.14;101448.94;6013234;23;20022;-77
2022/03/03 08:36:45;;;;;;;4.22;4.03;;;;;;;2.51;62.03;101452.34;6023780;23;20046;-75
2022/03/03 08:39:15;;;;;;;2.80;2.70;;;;;;;2.25;61.46;101386.91;6016210;23;20242;-74
2022/03/03 08:41:43;;;;;;;2.50;2.40;;;;;;;2.68;61.71;101433.22;5985349;23;20003;-77
2022/03/03 08:44:11;;;;;;;5.43;3.08;;;;;;;2.84;61.63;101450.38;6025810;23;20029;-75
2022/03/03 08:46:40;;;;;;;3.85;3.65;;;;;;;2.43;60.94;101358.28;6022560;23;20034;-76
2022/03/03 08:49:10;;;;;;;2.70;2.60;;;;;;;3.11;60.54;101444.09;5988291;23;20097;-76
2022/03/03 08:51:38;;;;;;;3.65;3.55;;;;;;;2.89;60.33;101380.34;6023581;23;20046;-75
2022/03/03 08:54:05;;;;;;;3.60;3.40;;;;;;;3.30;59.90;101431.78;6022114;23;20097;-76
2022/03/03 08:56:32;;;;;;;4.25;4.05;;;;;;;3.19;59.77;101395.59;5975143;23;20016;-77
2022/03/03 08:58:59;;;;;;;3.00;2.90;;;;;;;3.50;59.46;101416.00;5995001;23;20157;-75
2022/03/03 09:01:26;;;;;;;3.95;3.78;;;;;;;3.73;59.17;101439.09;6015563;23;20038;-76
2022/03/03 09:03:52;;;;;;;2.80;2.70;;;;;;;3.83;58.18;101437.28;5989924;23;20034;-75
2022/03/03 09:06:19;;;;;;;3.67;3.47;;;;;;;3.97;58.13;101432.75;6013527;23;20377;-76
2022/03/03 09:08:46;;;;;;;3.38;3.17;;;;;;;3.67;57.09;101355.25;5994100;23;21300;-76
2022/03/03 09:11:13;;;;;;;3.50;3.40;;;;;;;4.10;54.18;101375.44;6015238;23;20017;-74
2022/03/03 09:13:39;;;;;;;4.65;4.43;;;;;;;4.53;53.55;101418.94;5991496;23;20543;-74
2022/03/03 09:16:10;;;;;;;3.15;3.05;;;;;;;4.90;52.41;101439.19;6015395;23;20030;-76
2022/03/03 09:18:37;;;;;;;4.72;3.65;;;;;;;4.57;51.81;101371.22;5993375;23;20047;-75
2022/03/03 09:21:03;;;;;;;4.38;3.92;;;;;;;5.06;50.07;101418.97;6005451;23;20087;-74
2022/03/03 09:23:30;;;;;;;4.55;4.35;;;;;;;5.34;50.09;101450.56;5975594;23;20039;-75
2022/03/03 09:25:56;;;;;;;3.60;3.40;;;;;;;5.40;50.66;101433.06;6015874;23;20059;-74
2022/03/03 09:28:23;;;;;;;5.00;4.70;;;;;;;5.45;47.64;101416.50;5996248;23;20027;-76
2022/03/03 09:30:49;;;;;;;3.72;3.53;;;;;;;4.70;47.78;101294.75;6019523;23;20182;-75
2022/03/03 09:33:16;;;;;;;3.58;3.47;;;;;;;5.31;48.65;101357.78;5994131;23;20043;-76
2022/03/03 09:35:43;;;;;;;4.65;4.45;;;;;;;5.86;48.43;101426.09;6026340;23;20025;-75
2022/03/03 09:38:09;;;;;;;3.22;3.13;;;;;;;5.90;47.42;101432.09;5994645;23;20031;-76
2022/03/03 09:40:36;;;;;;;4.97;4.78;;;;;;;5.57;46.79;101340.75;6010813;23;20097;-76
2022/03/03 09:43:06;;;;;;;3.55;3.45;;;;;;;5.37;45.67;101316.00;6022866;23;20325;-76
2022/03/03 09:45:34;;;;;;;5.55;5.28;;;;;;;5.56;44.68;101321.69;5996687;23;20023;-75
2022/03/03 09:48:05;;;;;;;3.70;3.50;;;;;;;6.21;45.09;101400.19;6021436;23;20022;-74
2022/03/03 09:50:34;;;;;;;4.60;4.40;;;;;;;6.24;45.79;101364.50;6020082;23;20015;-75
2022/03/03 09:53:05;;;;;;;3.88;3.67;;;;;;;6.42;44.24;101376.22;6001469;23;20007;-74
2022/03/03 09:55:32;;;;;;;4.60;4.40;;;;;;;6.82;43.94;101408.31;6026831;23;20014;-75
2022/03/03 09:57:58;;;;;;;3.80;3.60;;;;;;;6.80;43.60;101390.09;6020133;23;20023;-75
2022/03/03 10:00:36;;;;;;;6.90;6.50;;;;;;;6.51;42.21;101331.66;6022585;23;20346;-76
2022/03/03 10:03:09;;;;;;;3.65;3.47;;;;;;;7.15;42.03;101410.03;5988157;23;20024;-74
2022/03/03 10:05:42;;;;;;;4.78;4.57;;;;;;;7.26;42.83;101404.53;6018827;23;20062;-75
2022/03/03 10:08:11;;;;;;;3.33;3.22;;;;;;;7.42;42.91;101402.38;5989466;23;20090;-75
2022/03/03 10:10:43;;;;;;;4.85;4.45;;;;;;;7.56;41.72;101408.06;6026055;23;20272;-75
2022/03/03 10:13:14;;;;;;;3.80;3.60;;;;;;;7.05;41.33;101327.66;5993144;23;20049;-76
2022/03/03 10:15:41;;;;;;;3.90;3.70;;;;;;;7.50;41.82;101395.16;6024752;23;20023;-75
2022/03/03 10:18:14;;;;;;;;;;;;;;;7.74;42.34;101414.50;5997246;23;20519;-77
2022/03/03 10:20:53;;;;;;;3.22;3.13;;;;;;;7.87;41.52;101414.16;6019740;23;20339;-75
2022/03/03 10:23:24;;;;;;;4.20;3.97;;;;;;;8.02;40.66;101415.44;5999573;23;20018;-76
2022/03/03 10:25:52;;;;;;;4.00;3.80;;;;;;;7.94;39.99;101374.72;5970648;23;20039;-75
2022/03/03 10:28:20;;;;;;;4.00;3.78;;;;;;;8.19;40.02;101414.03;6024331;23;20043;-75
2022/03/03 10:30:47;;;;;;;3.80;3.60;;;;;;;8.28;39.11;101417.25;5997757;23;20082;-75
2022/03/03 10:33:16;;;;;;;3.90;3.70;;;;;;;8.46;39.64;101414.13;6020822;23;20345;-76
2022/03/03 10:36:08;;;;;;;4.53;4.22;;;;;;;8.07;39.16;101346.44;5992312;23;20031;-76
2022/03/03 10:39:02;;;;;;;6.47;6.03;;;;;;;8.43;39.74;101369.75;6018751;23;20010;-76
2022/03/03 10:41:34;;;;;;;4.82;4.63;;;;;;;8.69;39.99;101396.81;5993685;23;20361;-75
2022/03/03 10:44:23;;;;;;;3.70;3.50;;;;;;;8.78;38.88;101396.53;6022714;23;20097;-75
2022/03/03 10:47:11;;;;;;;4.45;4.20;;;;;;;8.92;37.83;101398.63;5989742;23;20011;-75
2022/03/03 10:49:40;;;;;;;4.82;4.63;;;;;;;8.82;39.54;101384.16;6014033;23;20342;-76
2022/03/03 10:52:16;;;;;;;3.70;3.58;;;;;;;9.05;38.37;101389.47;5997378;23;20031;-75
2022/03/03 10:55:16;;;;;;;4.03;3.83;;;;;;;9.19;38.49;101386.38;5995125;23;20076;-75
2022/03/03 10:57:45;;;;;;;3.95;3.75;;;;;;;9.28;37.28;101393.03;5987968;23;20249;-75
2022/03/03 11:00:21;;;;;;;3.95;3.80;;;;;;;9.35;37.40;101386.69;6020770;23;20104;-76
2022/03/03 11:02:56;;;;;;;7.38;4.03;;;;;;;9.15;37.16;101321.91;6007988;23;20441;-76
2022/03/03 11:05:25;;;;;;;4.75;4.55;;;;;;;9.56;37.55;101378.03;6026769;23;20027;-75
2022/03/03 11:07:56;;;;;;;4.30;4.10;;;;;;;9.70;36.92;101380.16;5997337;23;20023;-74
2022/03/03 11:10:27;;;;;;;6.50;6.10;;;;;;;9.83;35.53;101383.16;6017540;23;20595;-76
2022/03/03 11:12:54;;;;;;;4.45;4.25;;;;;;;9.71;35.68;101346.94;5997945;23;20160;-74
2022/03/03 11:15:23;;;;;;;4.50;4.30;;;;;;;9.75;35.24;101364.25;6019352;23;20105;-75
2022/03/03 11:17:51;;;;;;;3.95;3.80;;;;;;;9.96;36.01;101379.16;5997365;23;20044;-75
2022/03/03 11:20:19;;;;;;;4.10;3.90;;;;;;;8.90;34.63;101191.06;6008824;23;20456;-77
2022/03/03 11:22:47;;;;;;;3.97;3.78;;;;;;;9.82;34.15;101359.59;6008634;23;20047;-74
2022/03/03 11:25:24;;;;;;;3.70;3.60;;;;;;;9.47;35.28;101305.00;6001056;23;20043;-75
2022/03/03 11:28:03;;;;;;;3.80;3.70;;;;;;;8.67;36.43;101200.59;6021514;23;20027;-75
2022/03/03 11:30:31;;;;;;;5.68;5.38;;;;;;;9.59;36.74;101364.81;5983408;23;20200;-76
2022/03/03 11:33:22;;;;;;;4.30;4.10;;;;;;;9.40;36.93;101376.88;6001905;23;20128;-75
2022/03/03 11:36:07;;;;;;;4.43;4.22;;;;;;;9.64;36.31;101382.13;6019423;23;20652;-74
2022/03/03 11:38:45;;;;;;;6.00;5.70;;;;;;;9.24;36.30;101342.56;6016759;23;20015;-74
2022/03/03 11:41:13;;;;;;;5.03;4.72;;;;;;;9.18;35.66;101308.69;5995861;23;20031;-74